Time;durP1;ratioP1;P1;durP2;ratioP2;P2;SDS_P1;SDS_P2;PMS_P1;PMS_P2;Temp;Humidity;BMP_temperature;BMP_pressure;BME280_temperature;BME280_humidity;BME280_pressure;Samples;Min_cycle;Max_cycle;Signal;HPM_P1;HPM_P2
2024/03/20 00:00:45;;;;;;;12.40;8.63;;;9.00;99.90;;;;;;4955178;28;20021;-49
2024/03/20 00:03:11;;;;;;;11.07;8.73;;;9.00;99.90;;;;;;4912410;28;20124;-46
2024/03/20 00:05:37;;;;;;;13.85;8.73;;;9.00;99.90;;;;;;4881166;28;20037;-49
2024/03/20 00:08:03;;;;;;;9.23;8.25;;;8.90;99.90;;;;;;4876729;28;22395;-49
2024/03/20 00:10:28;;;;;;;10.75;8.35;;;8.90;99.90;;;;;;4958877;28;20037;-48
2024/03/20 00:12:54;;;;;;;13.93;8.30;;;8.90;99.90;;;;;;4926962;28;20046;-49
2024/03/20 00:15:20;;;;;;;13.02;9.90;;;8.90;99.90;;;;;;4887792;28;20040;-57
2024/03/20 00:17:47;;;;;;;13.68;8.80;;;8.80;99.90;;;;;;4924569;28;20053;-51
2024/03/20 00:20:12;;;;;;;14.32;9.00;;;8.80;99.90;;;;;;4893923;28;21549;-48
2024/03/20 00:22:38;;;;;;;10.50;7.97;;;8.80;99.90;;;;;;4937267;28;20080;-46
2024/03/20 00:25:04;;;;;;;12.88;9.35;;;8.80;99.90;;;;;;4924115;28;20554;-57
2024/03/20 00:27:30;;;;;;;9.68;7.97;;;8.80;99.90;;;;;;4941436;28;20117;-51
2024/03/20 00:29:55;;;;;;;11.40;8.35;;;8.80;99.90;;;;;;4940284;28;20025;-55
2024/03/20 00:32:21;;;;;;;11.00;9.05;;;8.80;99.90;;;;;;4935604;28;20026;-46
2024/03/20 00:34:46;;;;;;;10.82;8.77;;;8.70;99.90;;;;;;4924152;28;20046;-51
2024/03/20 00:37:12;;;;;;;11.85;9.18;;;8.70;99.90;;;;;;4911471;28;20423;-51
2024/03/20 00:39:38;;;;;;;13.07;8.32;;;8.70;99.90;;;;;;4931098;28;21835;-48
2024/03/20 00:42:04;;;;;;;14.32;9.07;;;8.70;99.90;;;;;;4923665;28;20099;-50
2024/03/20 00:44:30;;;;;;;11.48;8.82;;;8.70;99.90;;;;;;4880621;28;20029;-48
2024/03/20 00:46:55;;;;;;;11.82;8.75;;;8.70;99.90;;;;;;4930612;28;20037;-52
2024/03/20 00:49:21;;;;;;;11.07;8.32;;;8.70;99.90;;;;;;4955271;28;20107;-46
2024/03/20 00:51:46;;;;;;;11.35;8.60;;;8.70;99.90;;;;;;4916712;28;20058;-47
2024/03/20 00:54:13;;;;;;;11.82;8.70;;;8.70;99.90;;;;;;4963813;28;20030;-45
2024/03/20 00:56:38;;;;;;;11.32;8.85;;;8.70;99.90;;;;;;4907228;28;20663;-48
2024/03/20 00:59:04;;;;;;;11.60;8.45;;;8.70;99.90;;;;;;4913985;28;21217;-50
2024/03/20 01:01:30;;;;;;;14.77;8.98;;;8.70;99.90;;;;;;4960880;28;20133;-44
2024/03/20 01:03:56;;;;;;;10.75;8.48;;;8.70;99.90;;;;;;4962337;28;20129;-51
2024/03/20 01:06:21;;;;;;;12.27;9.18;;;8.60;99.90;;;;;;4873761;28;20037;-56
2024/03/20 01:08:47;;;;;;;10.90;8.38;;;8.70;99.90;;;;;;4968739;28;20033;-51
2024/03/20 01:11:12;;;;;;;12.77;8.60;;;8.60;99.90;;;;;;4900464;28;21256;-48
2024/03/20 01:13:38;;;;;;;13.48;9.60;;;8.60;99.90;;;;;;4921289;28;20022;-48
2024/03/20 01:16:04;;;;;;;11.98;9.85;;;8.60;99.90;;;;;;4871762;28;20029;-58
2024/03/20 01:18:30;;;;;;;12.48;8.60;;;8.60;99.90;;;;;;4957489;28;20041;-45
2024/03/20 01:20:55;;;;;;;12.60;9.70;;;8.60;99.90;;;;;;4945537;28;20038;-51
2024/03/20 01:23:21;;;;;;;11.90;8.70;;;8.60;99.90;;;;;;4886423;28;20035;-46
2024/03/20 01:25:47;;;;;;;11.40;8.45;;;8.60;99.90;;;;;;4929453;28;20037;-56
2024/03/20 01:28:12;;;;;;;11.43;9.50;;;8.60;99.90;;;;;;4907817;28;20022;-49
2024/03/20 01:30:38;;;;;;;13.07;9.00;;;8.60;99.90;;;;;;4917994;28;20947;-48
2024/03/20 01:33:03;;;;;;;14.07;9.32;;;8.60;99.90;;;;;;4943072;28;20026;-50
2024/03/20 01:35:29;;;;;;;17.77;9.45;;;8.60;99.90;;;;;;4870518;28;20030;-50
2024/03/20 01:37:54;;;;;;;12.93;8.65;;;8.60;99.90;;;;;;4870936;28;20045;-53
2024/03/20 01:40:20;;;;;;;12.77;9.55;;;8.60;99.90;;;;;;4905373;28;22370;-47
2024/03/20 01:42:46;;;;;;;14.55;10.07;;;8.60;99.90;;;;;;4908983;28;21496;-46
2024/03/20 01:45:14;;;;;;;14.00;9.82;;;8.50;99.90;;;;;;4917288;28;20478;-48
2024/03/20 01:47:44;;;;;;;13.25;9.30;;;8.50;99.90;;;;;;4906112;28;20049;-50
2024/03/20 01:50:10;;;;;;;13.82;10.10;;;8.50;99.90;;;;;;4878279;28;21572;-46
2024/03/20 01:52:53;;;;;;;12.30;9.07;;;8.50;99.90;;;;;;4881305;28;20026;-51
2024/03/20 01:55:21;;;;;;;13.27;9.93;;;8.50;99.90;;;;;;4881800;28;21346;-50
2024/03/20 01:57:47;;;;;;;15.10;10.88;;;8.40;99.90;;;;;;4901056;28;20032;-52
2024/03/20 02:00:13;;;;;;;14.52;10.15;;;8.40;99.90;;;;;;4921395;28;20033;-48
2024/03/20 02:02:43;;;;;;;14.43;10.77;;;8.40;99.90;;;;;;4901362;28;20026;-49
2024/03/20 02:05:09;;;;;;;17.05;11.13;;;8.40;99.90;;;;;;4893327;28;21934;-48
2024/03/20 02:07:35;;;;;;;14.68;11.75;;;8.40;99.90;;;;;;4950894;28;20042;-48
2024/03/20 02:10:00;;;;;;;13.82;9.82;;;8.30;99.90;;;;;;4912974;28;20033;-50
2024/03/20 02:12:26;;;;;;;13.85;10.60;;;8.30;99.90;;;;;;4904413;28;20057;-48
2024/03/20 02:14:51;;;;;;;15.07;10.80;;;8.30;99.90;;;;;;4933055;28;20478;-46
2024/03/20 02:17:17;;;;;;;14.32;10.48;;;8.20;99.90;;;;;;4893036;28;22492;-53
2024/03/20 02:19:42;;;;;;;17.25;10.77;;;8.20;99.90;;;;;;4980210;28;20021;-49
2024/03/20 02:22:08;;;;;;;15.32;11.13;;;8.20;99.90;;;;;;4880254;28;20486;-58
2024/03/20 02:24:34;;;;;;;19.30;11.38;;;8.20;99.90;;;;;;4909343;28;20034;-51
2024/03/20 02:26:59;;;;;;;14.95;10.07;;;8.20;99.90;;;;;;4988430;28;20396;-48
2024/03/20 02:29:25;;;;;;;15.32;11.48;;;8.10;99.90;;;;;;4964089;28;20030;-49
2024/03/20 02:31:50;;;;;;;14.30;10.52;;;8.10;99.90;;;;;;4952315;28;20014;-51
2024/03/20 02:34:16;;;;;;;12.43;10.05;;;8.10;99.90;;;;;;4930954;28;20030;-49
2024/03/20 02:36:42;;;;;;;16.50;11.75;;;8.10;99.90;;;;;;4927573;28;21534;-51
2024/03/20 02:39:07;;;;;;;16.27;11.32;;;8.10;99.90;;;;;;4975274;28;20026;-50
2024/03/20 02:41:33;;;;;;;16.10;10.82;;;8.10;99.90;;;;;;4950421;28;20026;-49
2024/03/20 02:43:58;;;;;;;12.30;9.88;;;8.10;99.90;;;;;;4924663;28;20143;-59
2024/03/20 02:46:24;;;;;;;17.92;10.93;;;8.10;99.90;;;;;;4949241;28;20026;-46
2024/03/20 02:48:49;;;;;;;17.00;11.82;;;8.10;99.90;;;;;;4918204;28;21128;-54
2024/03/20 02:51:15;;;;;;;16.23;10.98;;;8.10;99.90;;;;;;4973721;28;20616;-50
2024/03/20 02:53:40;;;;;;;15.35;10.75;;;8.00;99.90;;;;;;4928536;28;20034;-50
2024/03/20 02:56:06;;;;;;;15.93;10.40;;;8.10;99.90;;;;;;4908905;28;20036;-50
2024/03/20 02:58:32;;;;;;;15.88;10.95;;;8.00;99.90;;;;;;4930796;28;20038;-51
2024/03/20 03:00:57;;;;;;;15.45;10.82;;;8.00;99.90;;;;;;4913215;28;20035;-51
2024/03/20 03:03:23;;;;;;;13.25;10.93;;;8.00;99.90;;;;;;4946552;28;20083;-59
2024/03/20 03:05:49;;;;;;;15.00;10.95;;;8.00;99.90;;;;;;4954787;28;20057;-52
2024/03/20 03:08:14;;;;;;;16.13;11.00;;;8.00;99.90;;;;;;4920621;28;20129;-51
2024/03/20 03:10:40;;;;;;;14.90;11.15;;;8.00;99.90;;;;;;4926072;28;20033;-52
2024/03/20 03:13:06;;;;;;;14.38;11.15;;;8.00;99.90;;;;;;4943300;28;20021;-50
2024/03/20 03:15:33;;;;;;;16.05;10.80;;;8.00;99.90;;;;;;4901285;28;20037;-51
2024/03/20 03:17:59;;;;;;;18.38;11.27;;;8.00;99.90;;;;;;4976689;28;20068;-48
2024/03/20 03:20:26;;;;;;;15.18;10.73;;;8.00;99.90;;;;;;4977373;28;20045;-50
2024/03/20 03:22:52;;;;;;;14.43;10.70;;;7.90;99.90;;;;;;4923844;28;20595;-50
2024/03/20 03:25:18;;;;;;;12.35;9.77;;;7.90;99.90;;;;;;4952710;28;20107;-50
2024/03/20 03:27:44;;;;;;;13.80;11.30;;;7.90;99.90;;;;;;4919623;28;21637;-50
2024/03/20 03:30:10;;;;;;;17.15;10.77;;;7.90;99.90;;;;;;4956484;28;20674;-49
2024/03/20 03:32:37;;;;;;;16.50;11.50;;;7.90;99.90;;;;;;4942247;28;20030;-51
2024/03/20 03:35:06;;;;;;;14.35;11.57;;;7.90;99.90;;;;;;4895211;28;20041;-58
2024/03/20 03:37:32;;;;;;;15.70;10.68;;;7.90;99.90;;;;;;4922299;28;20026;-50
2024/03/20 03:40:00;;;;;;;14.27;10.13;;;7.90;99.90;;;;;;4919461;28;20072;-50
2024/03/20 03:42:26;;;;;;;16.55;10.25;;;7.80;99.90;;;;;;4941357;28;20030;-58
2024/03/20 03:44:51;;;;;;;14.38;10.65;;;7.80;99.90;;;;;;4939340;28;20031;-50
2024/03/20 03:47:17;;;;;;;15.60;10.82;;;7.80;99.90;;;;;;4938504;28;21467;-54
2024/03/20 03:49:42;;;;;;;14.43;10.73;;;7.80;99.90;;;;;;4945863;28;20064;-53
2024/03/20 03:52:08;;;;;;;17.55;10.95;;;7.80;99.90;;;;;;4943814;28;20080;-47
2024/03/20 03:54:34;;;;;;;14.18;10.23;;;7.80;99.90;;;;;;4890320;28;20457;-53
2024/03/20 03:57:00;;;;;;;16.08;10.85;;;7.80;99.90;;;;;;4949213;28;20048;-51
2024/03/20 03:59:26;;;;;;;14.55;11.23;;;7.80;99.90;;;;;;4945462;28;20498;-52
2024/03/20 04:01:51;;;;;;;17.50;11.75;;;7.80;99.90;;;;;;4916836;28;20041;-50
2024/03/20 04:04:17;;;;;;;13.90;10.40;;;7.80;99.90;;;;;;4974318;28;20887;-50
2024/03/20 04:06:43;;;;;;;14.05;11.20;;;7.80;99.90;;;;;;4956428;28;20049;-50
2024/03/20 04:09:12;;;;;;;14.30;10.73;;;7.80;99.90;;;;;;4973136;28;20081;-50
2024/03/20 04:11:37;;;;;;;13.88;10.60;;;7.80;99.90;;;;;;4975397;28;20710;-48
2024/03/20 04:14:04;;;;;;;15.57;11.65;;;7.80;99.90;;;;;;4946515;28;20034;-59
2024/03/20 04:16:29;;;;;;;16.48;12.38;;;7.80;99.90;;;;;;4972411;28;20026;-45
2024/03/20 04:18:55;;;;;;;14.90;11.20;;;7.80;99.90;;;;;;4950330;28;20025;-50
2024/03/20 04:21:22;;;;;;;12.32;10.48;;;7.80;99.90;;;;;;4939123;28;20030;-52
2024/03/20 04:23:48;;;;;;;16.48;11.63;;;7.80;99.90;;;;;;4935489;28;20034;-54
2024/03/20 04:26:14;;;;;;;15.70;10.80;;;7.80;99.90;;;;;;4959159;28;20030;-51
2024/03/20 04:28:40;;;;;;;13.52;11.27;;;7.80;99.90;;;;;;4965660;28;20032;-51
2024/03/20 04:31:05;;;;;;;16.65;11.18;;;7.80;99.90;;;;;;4964397;28;20471;-49
2024/03/20 04:33:31;;;;;;;14.88;12.43;;;7.80;99.90;;;;;;4941398;28;20036;-48
2024/03/20 04:35:56;;;;;;;12.48;10.00;;;7.70;99.90;;;;;;4917671;28;20030;-49
2024/03/20 04:38:22;;;;;;;14.77;11.50;;;7.70;99.90;;;;;;4963623;28;20112;-57
2024/03/20 04:40:48;;;;;;;16.33;12.35;;;7.80;99.90;;;;;;4962813;28;20030;-52
2024/03/20 04:43:14;;;;;;;14.23;10.75;;;7.70;99.90;;;;;;4938643;28;20524;-51
2024/03/20 04:45:39;;;;;;;14.88;11.70;;;7.70;99.90;;;;;;4943353;28;20037;-46
2024/03/20 04:48:05;;;;;;;14.07;10.95;;;7.80;99.90;;;;;;4932973;28;21378;-49
2024/03/20 04:50:31;;;;;;;15.77;10.95;;;7.70;99.90;;;;;;4952031;28;20033;-50
2024/03/20 04:52:56;;;;;;;14.95;10.82;;;7.80;99.90;;;;;;4954487;28;20569;-52
2024/03/20 04:55:22;;;;;;;13.52;10.85;;;7.70;99.90;;;;;;4921111;28;20595;-53
2024/03/20 04:57:47;;;;;;;15.60;11.63;;;7.70;99.90;;;;;;4944164;28;20503;-50
2024/03/20 05:00:16;;;;;;;15.43;11.85;;;7.70;99.90;;;;;;4935268;28;20022;-53
2024/03/20 05:02:45;;;;;;;15.88;11.55;;;7.70;99.90;;;;;;4951852;28;20172;-49
2024/03/20 05:05:10;;;;;;;15.75;10.75;;;7.70;99.90;;;;;;4922134;28;20054;-52
2024/03/20 05:07:37;;;;;;;15.10;11.02;;;7.70;99.90;;;;;;4953281;28;20114;-49
2024/03/20 05:10:04;;;;;;;13.65;10.35;;;7.70;99.90;;;;;;4958042;28;20030;-48
2024/03/20 05:12:30;;;;;;;16.50;11.43;;;7.70;99.90;;;;;;4899359;28;20038;-51
2024/03/20 05:14:56;;;;;;;14.45;11.00;;;7.70;99.90;;;;;;4905153;28;20144;-50
2024/03/20 05:17:21;;;;;;;15.98;10.75;;;7.70;99.90;;;;;;4938128;28;22051;-49
2024/03/20 05:19:47;;;;;;;16.95;11.32;;;7.70;99.90;;;;;;4950613;28;20541;-50
2024/03/20 05:22:12;;;;;;;12.52;10.13;;;7.70;99.90;;;;;;4929323;28;20117;-49
2024/03/20 05:24:38;;;;;;;14.77;10.27;;;7.70;99.90;;;;;;4938777;28;20034;-48
2024/03/20 05:27:06;;;;;;;15.05;11.50;;;7.70;99.90;;;;;;4928836;28;20037;-51
2024/03/20 05:29:31;;;;;;;14.80;10.80;;;7.70;99.90;;;;;;4981690;28;20037;-51
2024/03/20 05:31:57;;;;;;;15.93;12.00;;;7.70;99.90;;;;;;4987026;28;20061;-48
2024/03/20 05:34:23;;;;;;;17.90;12.68;;;7.70;99.90;;;;;;4983652;28;20081;-49
2024/03/20 05:36:48;;;;;;;14.93;10.68;;;7.70;99.90;;;;;;4987637;28;20690;-51
2024/03/20 05:39:14;;;;;;;15.02;11.25;;;7.70;99.90;;;;;;4976195;28;20045;-50
2024/03/20 05:41:40;;;;;;;15.23;10.70;;;7.70;99.90;;;;;;4980172;28;20045;-50
2024/03/20 05:44:06;;;;;;;13.07;9.23;;;7.70;99.90;;;;;;4974904;28;20033;-59
2024/03/20 05:46:33;;;;;;;15.35;10.95;;;7.70;99.90;;;;;;4983048;28;20030;-50
2024/03/20 05:48:59;;;;;;;12.05;9.57;;;7.70;99.90;;;;;;4974400;28;20088;-48
2024/03/20 05:51:25;;;;;;;13.52;9.50;;;7.70;99.90;;;;;;4969709;28;20042;-49
2024/03/20 05:53:51;;;;;;;11.68;9.43;;;7.70;99.90;;;;;;4966550;28;20509;-57
2024/03/20 05:56:16;;;;;;;17.70;11.63;;;7.70;99.90;;;;;;4987365;28;20197;-50
2024/03/20 05:58:45;;;;;;;13.57;10.48;;;7.70;99.90;;;;;;4981364;28;20573;-51
2024/03/20 06:01:10;;;;;;;16.00;10.73;;;7.70;99.90;;;;;;4977669;28;20018;-51
2024/03/20 06:03:36;;;;;;;12.45;9.80;;;7.70;99.90;;;;;;4883714;28;20032;-49
2024/03/20 06:06:02;;;;;;;15.00;11.02;;;7.80;99.90;;;;;;4932804;28;20033;-46
2024/03/20 06:08:28;;;;;;;13.00;10.43;;;7.80;99.90;;;;;;4949342;28;20518;-52
2024/03/20 06:10:57;;;;;;;14.63;10.20;;;7.80;99.90;;;;;;4932848;28;20054;-50
2024/03/20 06:13:23;;;;;;;15.35;10.25;;;7.80;99.90;;;;;;4885812;28;20526;-59
2024/03/20 06:15:49;;;;;;;13.55;11.25;;;7.80;99.90;;;;;;4935584;28;20022;-48
2024/03/20 06:18:14;;;;;;;16.88;12.10;;;7.80;99.90;;;;;;4872330;28;20108;-50
2024/03/20 06:20:40;;;;;;;15.43;10.48;;;7.80;99.90;;;;;;4937597;28;20389;-49
2024/03/20 06:23:05;;;;;;;14.95;10.68;;;7.80;99.90;;;;;;4895316;28;20533;-57
2024/03/20 06:25:32;;;;;;;18.45;11.68;;;7.90;99.90;;;;;;4929421;28;20033;-48
2024/03/20 06:27:57;;;;;;;13.77;10.57;;;7.90;99.90;;;;;;4929900;28;20038;-49
2024/03/20 06:30:25;;;;;;;14.80;11.00;;;7.90;99.90;;;;;;4914038;28;20033;-47
2024/03/20 06:32:50;;;;;;;19.08;11.73;;;8.00;99.90;;;;;;4924782;28;20064;-58
2024/03/20 06:35:16;;;;;;;16.55;11.02;;;8.00;99.90;;;;;;4955718;28;20120;-48
2024/03/20 06:37:42;;;;;;;14.43;11.10;;;8.00;99.90;;;;;;4922561;28;21711;-52
2024/03/20 06:40:10;;;;;;;13.43;11.13;;;8.10;99.90;;;;;;4951262;28;20056;-49
2024/03/20 06:42:37;;;;;;;14.15;11.52;;;8.10;99.90;;;;;;4866056;28;20025;-48
2024/03/20 06:45:05;;;;;;;15.55;12.02;;;8.20;99.90;;;;;;4891876;28;20046;-52
2024/03/20 06:47:30;;;;;;;17.60;12.45;;;8.20;99.90;;;;;;4920753;28;20037;-52
2024/03/20 06:49:56;;;;;;;15.50;11.38;;;8.20;99.90;;;;;;4921868;28;20346;-53
2024/03/20 06:52:22;;;;;;;14.82;11.43;;;8.30;99.90;;;;;;4893555;28;20038;-59
2024/03/20 06:54:50;;;;;;;15.10;12.40;;;8.30;99.90;;;;;;4936589;28;20117;-54
2024/03/20 06:57:17;;;;;;;18.08;12.63;;;8.40;99.90;;;;;;4889658;28;20562;-51
2024/03/20 06:59:44;;;;;;;15.93;12.43;;;8.40;99.90;;;;;;4926334;28;20071;-53
2024/03/20 07:02:09;;;;;;;18.65;14.57;;;8.50;99.90;;;;;;4863240;28;20026;-58
2024/03/20 07:04:36;;;;;;;20.67;15.02;;;8.50;99.90;;;;;;4923633;28;20037;-51
2024/03/20 07:07:03;;;;;;;18.77;14.00;;;8.60;99.90;;;;;;4920211;28;20030;-53
2024/03/20 07:09:30;;;;;;;17.60;12.98;;;8.60;99.90;;;;;;4937676;28;20062;-51
2024/03/20 07:11:55;;;;;;;17.40;13.70;;;8.70;99.90;;;;;;4920860;28;20038;-50
2024/03/20 07:14:21;;;;;;;16.85;12.57;;;8.70;99.90;;;;;;4913557;28;21897;-52
2024/03/20 07:16:47;;;;;;;17.60;12.57;;;8.80;99.90;;;;;;4934091;28;20030;-49
2024/03/20 07:19:13;;;;;;;16.55;12.30;;;8.80;99.90;;;;;;4891383;28;20029;-53
2024/03/20 07:21:41;;;;;;;14.25;11.63;;;8.90;99.90;;;;;;4865793;28;20441;-51
2024/03/20 07:24:07;;;;;;;19.83;13.60;;;8.90;99.90;;;;;;4886246;28;22467;-49
2024/03/20 07:26:37;;;;;;;16.75;11.98;;;9.00;99.90;;;;;;4959946;28;20034;-50
2024/03/20 07:29:07;;;;;;;19.45;13.20;;;9.10;99.90;;;;;;4879589;28;20034;-59
2024/03/20 07:31:33;;;;;;;16.42;12.82;;;9.20;99.90;;;;;;4907144;28;20029;-49
2024/03/20 07:34:00;;;;;;;16.80;12.93;;;9.20;99.90;;;;;;4890523;28;20027;-48
2024/03/20 07:36:27;;;;;;;16.88;12.63;;;9.30;99.90;;;;;;4846186;28;20050;-51
2024/03/20 07:38:55;;;;;;;18.85;13.73;;;9.40;99.90;;;;;;4883085;28;20030;-60
2024/03/20 07:41:22;;;;;;;16.90;12.23;;;9.50;99.90;;;;;;4893126;28;21651;-52
2024/03/20 07:43:49;;;;;;;15.80;12.70;;;9.60;99.90;;;;;;4903881;28;20042;-47
2024/03/20 07:46:15;;;;;;;18.17;13.00;;;9.70;99.90;;;;;;4901909;28;20040;-49
2024/03/20 07:48:46;;;;;;;19.73;13.05;;;9.90;99.90;;;;;;4850382;28;20072;-51
2024/03/20 07:51:14;;;;;;;19.23;14.30;;;9.90;99.90;;;;;;4855101;28;20085;-48
2024/03/20 07:53:41;;;;;;;16.67;12.88;;;10.00;99.90;;;;;;4921521;28;20070;-49
2024/03/20 07:56:07;;;;;;;15.68;12.40;;;10.00;99.90;;;;;;4851107;28;20026;-59
2024/03/20 07:58:32;;;;;;;19.15;14.63;;;10.10;99.90;;;;;;4887937;28;20124;-49
2024/03/20 08:00:58;;;;;;;17.02;13.38;;;10.20;99.90;;;;;;4940419;28;20109;-54
2024/03/20 08:03:24;;;;;;;20.20;14.30;;;10.30;99.90;;;;;;4940289;28;20053;-49
2024/03/20 08:05:50;;;;;;;20.92;14.70;;;10.30;99.90;;;;;;4932112;28;20059;-59
2024/03/20 08:08:15;;;;;;;20.73;14.68;;;10.50;99.90;;;;;;4955648;28;20525;-47
2024/03/20 08:10:40;;;;;;;16.35;14.07;;;10.50;99.90;;;;;;4920102;28;21352;-50
2024/03/20 08:13:09;;;;;;;24.00;14.75;;;10.50;99.90;;;;;;4946058;28;20041;-50
2024/03/20 08:15:36;;;;;;;23.48;15.25;;;10.60;99.90;;;;;;4913577;28;20382;-49
2024/03/20 08:18:02;;;;;;;18.73;14.60;;;10.70;99.90;;;;;;4895422;28;20034;-49
2024/03/20 08:20:28;;;;;;;20.45;15.15;;;10.80;99.90;;;;;;4965682;28;20372;-51
2024/03/20 08:22:53;;;;;;;20.10;15.40;;;10.90;99.90;;;;;;4892351;28;20029;-50
2024/03/20 08:25:19;;;;;;;22.48;16.48;;;11.10;99.90;;;;;;4938478;28;20053;-59
2024/03/20 08:27:45;;;;;;;21.65;16.70;;;11.20;99.90;;;;;;4927274;28;20375;-52
2024/03/20 08:30:13;;;;;;;22.65;17.15;;;11.30;99.90;;;;;;4892181;28;22583;-48
2024/03/20 08:32:39;;;;;;;21.67;16.45;;;11.40;99.90;;;;;;4979476;28;20601;-52
2024/03/20 08:35:07;;;;;;;20.55;16.42;;;11.40;99.90;;;;;;4907631;28;20026;-45
2024/03/20 08:37:33;;;;;;;28.98;18.60;;;11.50;99.90;;;;;;4888615;28;20461;-50
2024/03/20 08:40:01;;;;;;;23.42;17.42;;;11.50;99.90;;;;;;4938904;28;20030;-50
2024/03/20 08:42:27;;;;;;;25.48;17.88;;;11.60;99.90;;;;;;4888589;28;20681;-48
2024/03/20 08:44:53;;;;;;;25.48;17.85;;;11.70;99.90;;;;;;4910656;28;20031;-59
2024/03/20 08:47:18;;;;;;;27.45;17.90;;;11.80;99.90;;;;;;4948436;28;20052;-50
2024/03/20 08:49:44;;;;;;;24.10;17.58;;;11.80;99.90;;;;;;4906642;28;21454;-48
2024/03/20 08:52:11;;;;;;;18.90;16.60;;;11.90;99.90;;;;;;4938611;28;20037;-53
2024/03/20 08:54:42;;;;;;;23.30;17.00;;;12.00;99.90;;;;;;4909122;28;20119;-49
2024/03/20 08:57:08;;;;;;;22.73;16.90;;;12.10;99.90;;;;;;4880632;28;21122;-47
2024/03/20 08:59:34;;;;;;;26.02;16.55;;;12.10;99.90;;;;;;4973980;28;20034;-52
2024/03/20 09:02:02;;;;;;;24.92;18.08;;;12.20;99.90;;;;;;4905098;28;20034;-49
2024/03/20 09:04:28;;;;;;;24.73;17.30;;;12.30;99.90;;;;;;4904262;28;20095;-48
2024/03/20 09:06:55;;;;;;;23.80;16.38;;;12.40;99.90;;;;;;4984136;28;20489;-51
2024/03/20 09:09:21;;;;;;;22.92;16.42;;;12.50;99.90;;;;;;4966455;28;20033;-47
2024/03/20 09:11:47;;;;;;;22.35;16.15;;;12.60;99.90;;;;;;4947198;28;20026;-48
2024/03/20 09:14:13;;;;;;;24.02;16.90;;;12.60;99.90;;;;;;4917997;28;20025;-49
2024/03/20 09:16:38;;;;;;;25.52;16.77;;;12.70;99.90;;;;;;4951358;28;21474;-49
2024/03/20 09:19:04;;;;;;;22.00;15.75;;;12.80;99.90;;;;;;4973277;28;20033;-48
2024/03/20 09:21:34;;;;;;;23.13;16.17;;;12.90;99.90;;;;;;4941948;28;20030;-46
2024/03/20 09:24:03;;;;;;;21.00;15.63;;;13.10;99.90;;;;;;4927892;28;20117;-49
2024/03/20 09:26:29;;;;;;;19.55;14.35;;;13.20;99.90;;;;;;4938433;28;20033;-49
2024/03/20 09:28:54;;;;;;;19.77;14.25;;;13.30;99.90;;;;;;4912499;28;20026;-51
2024/03/20 09:31:20;;;;;;;21.02;13.77;;;13.40;99.90;;;;;;4955687;28;20061;-60
2024/03/20 09:33:46;;;;;;;18.45;11.55;;;13.40;99.90;;;;;;4945186;28;20022;-60
2024/03/20 09:36:12;;;;;;;20.00;11.55;;;13.40;99.90;;;;;;4944531;28;20405;-48
2024/03/20 09:38:38;;;;;;;17.80;11.20;;;13.50;99.90;;;;;;4949213;28;20030;-50
2024/03/20 09:41:03;;;;;;;13.23;10.85;;;13.50;99.90;;;;;;4911943;28;20076;-46
2024/03/20 09:43:29;;;;;;;17.75;11.50;;;13.60;99.90;;;;;;4921472;28;20123;-52
2024/03/20 09:45:55;;;;;;;15.88;11.25;;;13.70;99.90;;;;;;4965436;28;20038;-59
2024/03/20 09:48:21;;;;;;;16.75;10.77;;;13.90;99.90;;;;;;4932264;28;21653;-49
2024/03/20 09:50:48;;;;;;;14.00;10.48;;;14.00;99.90;;;;;;4926199;28;20021;-53
2024/03/20 09:53:14;;;;;;;16.90;12.52;;;14.20;99.90;;;;;;4903513;28;20049;-51
2024/03/20 09:55:43;;;;;;;15.98;10.80;;;14.30;99.90;;;;;;4951310;28;21452;-53
2024/03/20 09:58:13;;;;;;;18.98;11.30;;;14.30;99.90;;;;;;4960134;28;20509;-53
2024/03/20 10:00:38;;;;;;;16.08;10.88;;;14.40;99.90;;;;;;4932065;28;20073;-50
2024/03/20 10:03:05;;;;;;;16.77;10.30;;;14.50;99.90;;;;;;4957621;28;20034;-52
2024/03/20 10:05:31;;;;;;;14.55;10.45;;;14.60;99.90;;;;;;4924653;28;20034;-51
2024/03/20 10:07:57;;;;;;;12.68;9.90;;;14.70;99.90;;;;;;4924253;28;20032;-57
2024/03/20 10:10:23;;;;;;;11.27;8.63;;;14.70;99.90;;;;;;4958915;28;20056;-60
2024/03/20 10:12:49;;;;;;;14.27;8.35;;;14.90;99.90;;;;;;4959941;28;20443;-50
2024/03/20 10:15:22;;;;;;;11.98;8.27;;;14.90;99.90;;;;;;4955265;28;20073;-47
2024/03/20 10:17:49;;;;;;;11.70;8.20;;;14.80;99.90;;;;;;4977729;28;20105;-47
2024/03/20 10:20:17;;;;;;;8.10;6.25;;;15.00;99.90;;;;;;4966475;28;20037;-49
2024/03/20 10:22:43;;;;;;;10.25;6.70;;;15.10;99.90;;;;;;4964207;28;20034;-53
2024/03/20 10:25:13;;;;;;;12.60;7.55;;;15.10;99.90;;;;;;4989487;28;20056;-47
2024/03/20 10:27:40;;;;;;;9.57;6.72;;;15.10;99.90;;;;;;4975529;28;20042;-49
2024/03/20 10:30:17;;;;;;;10.00;7.20;;;15.20;99.90;;;;;;4966273;28;20034;-48
2024/03/20 10:32:48;;;;;;;14.50;6.95;;;15.20;99.90;;;;;;4997194;28;20026;-52
2024/03/20 10:35:15;;;;;;;10.68;7.72;;;15.30;99.90;;;;;;4990204;28;20072;-48
2024/03/20 10:37:43;;;;;;;12.43;6.75;;;15.30;99.90;;;;;;4983987;28;20034;-50
2024/03/20 10:40:22;;;;;;;9.57;5.97;;;15.30;99.90;;;;;;4982635;28;20465;-53
2024/03/20 10:42:50;;;;;;;9.48;6.03;;;15.30;99.90;;;;;;4984646;28;20531;-52
2024/03/20 10:45:17;;;;;;;7.97;5.75;;;15.30;99.90;;;;;;4991207;28;20022;-48
2024/03/20 10:47:47;;;;;;;14.23;7.53;;;15.30;99.90;;;;;;5016650;22;20045;-48
2024/03/20 10:50:16;;;;;;;11.43;7.75;;;15.30;99.90;;;;;;4995857;28;20513;-50
2024/03/20 10:52:49;;;;;;;8.10;6.10;;;15.30;99.90;;;;;;4990717;28;20508;-50
2024/03/20 10:55:18;;;;;;;9.48;6.25;;;15.20;99.90;;;;;;4981113;28;20037;-50
2024/03/20 10:57:46;;;;;;;9.63;6.63;;;15.30;99.90;;;;;;4986419;28;20025;-50
2024/03/20 11:00:20;;;;;;;9.55;6.25;;;15.10;99.90;;;;;;4990599;28;20490;-47
2024/03/20 11:02:47;;;;;;;12.65;7.55;;;15.20;99.90;;;;;;4992758;28;20037;-51
2024/03/20 11:05:40;;;;;;;10.27;7.45;;;15.20;99.90;;;;;;4992751;28;20470;-53
2024/03/20 11:08:07;;;;;;;9.55;7.30;;;15.10;99.90;;;;;;4991882;28;20030;-48
2024/03/20 11:10:34;;;;;;;9.30;7.45;;;15.20;99.90;;;;;;4985274;28;20454;-48
2024/03/20 11:13:03;;;;;;;12.80;7.55;;;15.20;99.90;;;;;;4982628;28;20053;-49
2024/03/20 11:15:30;;;;;;;10.05;8.15;;;15.20;99.90;;;;;;4989537;28;20547;-53
2024/03/20 11:18:02;;;;;;;10.63;8.20;;;15.10;99.90;;;;;;4993178;28;20029;-49
2024/03/20 11:20:34;;;;;;;11.57;7.88;;;15.10;99.90;;;;;;4990209;28;20033;-52
2024/03/20 11:23:06;;;;;;;10.73;7.97;;;15.20;99.90;;;;;;4985331;28;20091;-49
2024/03/20 11:25:35;;;;;;;14.63;7.75;;;15.30;99.90;;;;;;4981212;28;20469;-51
2024/03/20 11:28:01;;;;;;;11.73;8.52;;;15.50;99.90;;;;;;4978980;28;20518;-53
2024/03/20 11:30:27;;;;;;;12.80;8.80;;;15.50;99.90;;;;;;4987938;28;20096;-54
2024/03/20 11:32:53;;;;;;;13.15;9.25;;;15.60;99.90;;;;;;4991322;28;20026;-50
2024/03/20 11:35:19;;;;;;;10.40;8.05;;;15.60;99.90;;;;;;4982184;28;20061;-58
2024/03/20 11:37:46;;;;;;;10.60;7.57;;;15.60;99.90;;;;;;4990665;28;20423;-50
2024/03/20 11:40:11;;;;;;;10.20;8.18;;;15.70;99.90;;;;;;4979388;28;20034;-49
2024/03/20 11:42:37;;;;;;;14.13;9.32;;;15.80;99.90;;;;;;4989723;28;20025;-50
2024/03/20 11:45:12;;;;;;;14.95;8.82;;;15.90;99.90;;;;;;4984954;28;20022;-49
2024/03/20 11:47:38;;;;;;;12.05;8.95;;;15.80;99.90;;;;;;4993199;28;20334;-52
2024/03/20 11:50:05;;;;;;;10.38;7.35;;;15.70;99.90;;;;;;4984088;28;20478;-51
2024/03/20 11:52:31;;;;;;;10.25;6.75;;;15.60;99.90;;;;;;4990039;28;20030;-47
2024/03/20 11:54:58;;;;;;;12.00;7.65;;;15.60;99.90;;;;;;4977378;28;20030;-53
2024/03/20 11:57:24;;;;;;;12.25;7.95;;;15.60;99.90;;;;;;4987562;28;20076;-48
2024/03/20 11:59:51;;;;;;;10.88;8.13;;;15.70;99.90;;;;;;4991292;28;20061;-49
2024/03/20 12:02:18;;;;;;;13.73;8.20;;;15.70;99.90;;;;;;4983022;28;20041;-52
2024/03/20 12:04:44;;;;;;;12.18;7.75;;;15.70;99.90;;;;;;4978500;28;20054;-49
2024/03/20 12:07:27;;;;;;;13.80;7.78;;;15.80;99.90;;;;;;4973612;28;20065;-58
2024/03/20 12:09:53;;;;;;;10.70;7.38;;;15.80;99.90;;;;;;4971569;28;20025;-51
2024/03/20 12:12:21;;;;;;;11.57;7.43;;;15.80;99.90;;;;;;4983984;28;20494;-54
2024/03/20 12:14:48;;;;;;;12.27;8.00;;;15.80;99.90;;;;;;4988930;28;20018;-48
2024/03/20 12:17:13;;;;;;;12.32;7.72;;;15.90;99.90;;;;;;4982174;28;20079;-50
2024/03/20 12:19:39;;;;;;;10.50;7.82;;;15.90;99.90;;;;;;4980140;28;20042;-52
2024/03/20 12:22:05;;;;;;;11.07;7.22;;;15.90;99.90;;;;;;4972882;28;20061;-50
2024/03/20 12:24:34;;;;;;;10.25;6.68;;;15.90;99.90;;;;;;4983015;28;20034;-53
2024/03/20 12:27:01;;;;;;;12.13;7.20;;;16.00;99.90;;;;;;4984697;28;20026;-53
2024/03/20 12:29:28;;;;;;;9.43;7.05;;;16.10;99.90;;;;;;4983412;28;20038;-48
2024/03/20 12:31:53;;;;;;;13.13;8.07;;;16.20;99.90;;;;;;4980126;28;20026;-49
2024/03/20 12:34:19;;;;;;;11.82;8.18;;;16.10;99.90;;;;;;4972602;28;20030;-51